createdAt,value
2019-05-07T00:02:22.685Z,76.46
2019-05-07T00:04:52.270Z,76.33
2019-05-07T00:07:22.398Z,76.34
2019-05-07T00:09:52.594Z,76.30
2019-05-07T00:12:23.014Z,76.23
2019-05-07T00:15:00.931Z,76.24
2019-05-07T00:17:22.871Z,76.10
2019-05-07T00:19:52.606Z,75.98
2019-05-07T00:22:22.769Z,76.00
2019-05-07T00:24:52.166Z,76.04
2019-05-07T00:27:22.602Z,76.05
2019-05-07T00:29:52.055Z,76.05
2019-05-07T00:32:22.134Z,76.11
2019-05-07T00:34:55.815Z,76.17
2019-05-07T00:37:25.876Z,76.27
2019-05-07T00:39:58.651Z,76.39
2019-05-07T00:42:44.933Z,76.49
2019-05-07T00:45:23.784Z,76.68
2019-05-07T00:47:52.103Z,76.86
2019-05-07T00:50:25.120Z,76.98
2019-05-07T00:52:53.631Z,77.22
2019-05-07T00:55:22.805Z,77.29
2019-05-07T00:57:52.596Z,77.35
2019-05-07T01:00:22.351Z,77.34
2019-05-07T01:02:52.515Z,77.24
2019-05-07T01:05:23.122Z,77.19
2019-05-07T01:07:52.964Z,77.15
2019-05-07T01:10:22.354Z,77.17
2019-05-07T01:12:53.007Z,77.22
2019-05-07T01:15:30.456Z,77.32
2019-05-07T01:17:52.106Z,77.19
2019-05-07T01:20:22.160Z,77.28
2019-05-07T01:22:54.199Z,77.26
2019-05-07T01:25:22.075Z,77.31
2019-05-07T01:27:50.654Z,77.29
2019-05-07T01:30:19.434Z,77.24
2019-05-07T01:33:02.754Z,77.25
2019-05-07T01:35:32.945Z,77.28
2019-05-07T01:38:03.151Z,77.31
2019-05-07T01:40:32.354Z,77.44
2019-05-07T01:43:02.544Z,77.50
2019-05-07T01:45:43.209Z,77.49
2019-05-07T01:48:04.381Z,77.62
2019-05-07T01:50:32.431Z,77.47
2019-05-07T01:53:00.856Z,77.33
2019-05-07T01:55:31.765Z,77.16
2019-05-07T01:57:59.682Z,77.05
2019-05-07T02:00:28.107Z,76.86
2019-05-07T02:02:58.216Z,76.79
2019-05-07T02:05:34.408Z,76.61
2019-05-07T02:08:08.628Z,76.56
2019-05-07T02:10:42.828Z,76.60
2019-05-07T02:13:12.604Z,76.65
2019-05-07T02:15:42.801Z,76.60
2019-05-07T02:18:12.588Z,76.64
2019-05-07T02:20:42.650Z,76.62
2019-05-07T02:23:12.858Z,76.63
2019-05-07T02:25:42.022Z,76.68
2019-05-07T02:28:12.733Z,76.79
2019-05-07T02:30:44.375Z,76.92
2019-05-07T02:33:13.786Z,77.03
2019-05-07T02:35:43.952Z,77.07
2019-05-07T02:38:16.457Z,77.14
2019-05-07T02:40:46.527Z,77.24
2019-05-07T02:43:15.017Z,77.33
2019-05-07T02:45:45.138Z,77.34
2019-05-07T02:48:14.890Z,77.54
2019-05-07T02:50:44.901Z,77.56
2019-05-07T02:53:33.955Z,77.58
2019-05-07T02:56:04.004Z,77.65
2019-05-07T02:58:33.228Z,77.82
2019-05-07T03:01:04.754Z,78.37
2019-05-07T03:03:33.439Z,78.19
2019-05-07T03:06:03.008Z,78.36
2019-05-07T03:08:33.059Z,78.58
2019-05-07T03:11:03.346Z,78.67
2019-05-07T03:13:33.681Z,78.85
2019-05-07T03:16:03.797Z,79.06
2019-05-07T03:18:33.415Z,79.27
2019-05-07T03:21:03.847Z,80.10
2019-05-07T03:23:34.293Z,79.64
2019-05-07T03:26:04.489Z,79.86
2019-05-07T03:28:34.563Z,80.34
2019-05-07T03:31:08.029Z,79.87
2019-05-07T03:33:46.550Z,80.13
2019-05-07T03:36:15.974Z,80.06
2019-05-07T03:38:43.858Z,80.10
2019-05-07T03:41:12.876Z,80.02
2019-05-07T03:43:43.430Z,79.90
2019-05-07T03:46:14.287Z,79.88
2019-05-07T03:48:44.384Z,79.79
2019-05-07T03:51:13.216Z,79.94
2019-05-07T03:53:43.555Z,79.97
2019-05-07T03:56:13.287Z,80.03
2019-05-07T03:58:43.220Z,80.17
2019-05-07T04:01:13.357Z,80.24
2019-05-07T04:03:44.720Z,80.23
2019-05-07T04:06:12.997Z,80.27
2019-05-07T04:08:43.352Z,80.45
2019-05-07T04:11:13.783Z,80.60
2019-05-07T04:13:44.062Z,80.63
2019-05-07T04:16:13.802Z,80.64
2019-05-07T04:18:43.722Z,80.67
2019-05-07T04:21:14.050Z,80.67
2019-05-07T04:23:43.853Z,80.71
2019-05-07T04:26:22.918Z,80.77
2019-05-07T04:29:05.543Z,80.78
2019-05-07T04:31:35.501Z,80.80
2019-05-07T04:34:06.115Z,80.74
2019-05-07T04:36:35.889Z,80.63
2019-05-07T04:39:06.546Z,80.43
2019-05-07T04:41:34.980Z,80.24
2019-05-07T04:44:04.061Z,80.04
2019-05-07T04:46:33.655Z,79.77
2019-05-07T04:49:03.714Z,79.69
2019-05-07T04:51:43.353Z,79.60
2019-05-07T04:54:13.194Z,79.46
2019-05-07T04:56:43.648Z,79.34
2019-05-07T04:59:13.165Z,79.08
2019-05-07T05:01:43.749Z,78.87
2019-05-07T05:04:25.443Z,78.97
2019-05-07T05:06:42.817Z,78.95
2019-05-07T05:09:12.551Z,78.81
2019-05-07T05:11:43.768Z,78.71
2019-05-07T05:14:13.654Z,78.37
2019-05-07T05:16:42.580Z,78.32
2019-05-07T05:19:12.616Z,78.25
2019-05-07T05:21:54.884Z,78.13
2019-05-07T05:24:36.227Z,77.96
2019-05-07T05:27:04.795Z,77.18
2019-05-07T05:29:34.593Z,77.24
2019-05-07T05:32:03.160Z,76.95
2019-05-07T05:34:32.886Z,76.89
2019-05-07T05:37:02.445Z,76.67
2019-05-07T05:39:32.022Z,76.49
2019-05-07T05:42:02.547Z,76.33
2019-05-07T05:44:32.665Z,76.31
2019-05-07T05:47:02.416Z,76.13
2019-05-07T05:49:32.170Z,75.76
2019-05-07T05:52:05.207Z,75.31
2019-05-07T05:54:35.394Z,75.13
2019-05-07T05:57:14.919Z,75.08
2019-05-07T05:59:55.510Z,74.86
2019-05-07T06:02:28.493Z,74.86
2019-05-07T06:04:58.616Z,74.70
2019-05-07T06:07:34.929Z,74.45
2019-05-07T06:10:24.010Z,73.93
2019-05-07T06:12:57.073Z,73.16
2019-05-07T06:15:33.504Z,73.14
2019-05-07T06:18:17.719Z,72.94
2019-05-07T06:20:42.784Z,72.35
2019-05-07T06:23:15.610Z,72.26
2019-05-07T06:25:46.498Z,71.90
2019-05-07T06:28:14.962Z,71.59
2019-05-07T06:30:43.708Z,71.38
2019-05-07T06:33:12.557Z,71.05
2019-05-07T06:35:42.890Z,70.86
2019-05-07T06:38:12.506Z,70.27
2019-05-07T06:40:57.867Z,69.85
2019-05-07T06:43:27.970Z,69.61
2019-05-07T06:45:58.043Z,69.50
2019-05-07T06:48:38.894Z,69.21
2019-05-07T06:50:57.342Z,68.94
2019-05-07T06:53:33.266Z,67.56
2019-05-07T06:56:02.932Z,67.44
2019-05-07T06:58:33.551Z,65.90
2019-05-07T07:01:06.567Z,65.71
2019-05-07T07:03:36.714Z,65.34
2019-05-07T07:06:18.774Z,64.39
2019-05-07T07:08:52.642Z,64.79
2019-05-07T07:11:26.469Z,64.85
2019-05-07T07:13:55.029Z,64.36
2019-05-07T07:16:23.619Z,64.73
2019-05-07T07:18:55.327Z,64.45
2019-05-07T07:21:22.297Z,63.82
2019-05-07T07:23:52.395Z,63.38
2019-05-07T07:26:22.104Z,60.41
2019-05-07T07:28:52.522Z,61.23
2019-05-07T07:31:28.760Z,60.77
2019-05-07T07:33:59.015Z,58.74
2019-05-07T07:36:29.101Z,59.24
2019-05-07T07:38:57.694Z,57.76
2019-05-07T07:41:41.967Z,57.00
2019-05-07T07:44:10.223Z,56.90
2019-05-07T07:46:39.725Z,57.06
2019-05-07T07:49:14.028Z,56.18
2019-05-07T07:51:42.095Z,54.44
2019-05-07T07:54:08.490Z,54.95
2019-05-07T07:56:51.881Z,54.53
2019-05-07T07:59:25.870Z,54.50
2019-05-07T08:01:55.967Z,51.59
2019-05-07T08:04:24.445Z,52.90
2019-05-07T08:07:04.842Z,52.69
2019-05-07T08:09:34.425Z,52.72
2019-05-07T08:12:03.821Z,51.15
2019-05-07T08:14:33.226Z,51.99
2019-05-07T08:17:03.374Z,52.04
2019-05-07T08:19:32.809Z,49.76
2019-05-07T08:22:02.839Z,50.57
2019-05-07T08:24:32.188Z,50.39
2019-05-07T08:27:02.376Z,50.80
2019-05-07T08:29:32.564Z,51.71
2019-05-07T08:32:19.662Z,52.60
2019-05-07T08:34:56.548Z,52.23
2019-05-07T08:37:24.976Z,52.09
2019-05-07T08:39:53.416Z,51.69
2019-05-07T08:42:22.797Z,50.42
2019-05-07T08:45:05.282Z,49.69
2019-05-07T08:47:43.428Z,50.16
2019-05-07T08:50:12.242Z,49.48
2019-05-07T08:52:41.975Z,49.88
2019-05-07T08:55:12.558Z,48.78
2019-05-07T08:57:42.054Z,49.48
2019-05-07T09:00:12.812Z,49.93
2019-05-07T09:02:42.071Z,48.91
2019-05-07T09:05:11.954Z,49.36
2019-05-07T09:07:42.419Z,47.69
2019-05-07T09:10:12.653Z,47.79
2019-05-07T09:12:42.890Z,47.13
2019-05-07T09:15:12.424Z,46.85
2019-05-07T09:17:42.288Z,46.68
2019-05-07T09:20:12.550Z,46.00
2019-05-07T09:22:42.721Z,45.97
2019-05-07T09:25:13.036Z,45.08
2019-05-07T09:27:46.157Z,44.69
2019-05-07T09:30:28.362Z,44.63
2019-05-07T09:33:02.513Z,43.97
2019-05-07T09:35:32.759Z,44.29
2019-05-07T09:38:03.027Z,43.99
2019-05-07T09:40:32.034Z,43.96
2019-05-07T09:43:02.375Z,44.27
2019-05-07T09:45:32.873Z,44.01
2019-05-07T09:48:02.911Z,42.10
2019-05-07T09:50:32.525Z,40.87
2019-05-07T09:53:02.354Z,40.97
2019-05-07T09:55:32.623Z,40.77
2019-05-07T09:58:02.137Z,40.82
2019-05-07T10:00:32.011Z,40.69
2019-05-07T10:03:00.679Z,41.00
2019-05-07T10:05:29.288Z,41.48
2019-05-07T10:07:58.300Z,43.02
2019-05-07T10:10:26.740Z,41.77
2019-05-07T10:13:09.211Z,41.07
2019-05-07T10:15:37.733Z,40.65
2019-05-07T10:18:12.414Z,40.17
2019-05-07T10:20:42.099Z,39.95
2019-05-07T10:23:12.432Z,39.73
2019-05-07T10:25:41.365Z,41.62
2019-05-07T10:28:12.344Z,44.06
2019-05-07T10:30:42.663Z,44.82
2019-05-07T10:33:12.337Z,45.69
2019-05-07T10:35:43.411Z,46.84
2019-05-07T10:38:12.420Z,47.30
2019-05-07T10:40:41.388Z,47.98
2019-05-07T10:43:10.448Z,48.02
2019-05-07T10:45:56.827Z,47.64
2019-05-07T10:48:33.109Z,47.88
2019-05-07T10:51:02.773Z,47.83
2019-05-07T10:53:32.019Z,47.33
2019-05-07T10:56:02.527Z,46.93
2019-05-07T10:58:32.010Z,46.63
2019-05-07T11:01:02.867Z,46.74
2019-05-07T11:03:32.491Z,46.83
2019-05-07T11:06:01.522Z,45.74
2019-05-07T11:08:29.950Z,45.20
2019-05-07T11:10:58.508Z,42.90
2019-05-07T11:13:26.944Z,44.04
2019-05-07T11:16:02.900Z,43.20
2019-05-07T11:18:33.107Z,43.17
2019-05-07T11:21:03.063Z,43.64
2019-05-07T11:23:32.695Z,44.14
2019-05-07T11:26:02.529Z,44.26
2019-05-07T11:28:32.562Z,44.22
2019-05-07T11:31:02.142Z,44.97
2019-05-07T13:18:46.938Z,44.57
2019-05-07T13:21:15.452Z,44.57
2019-05-07T13:23:43.890Z,38.17
2019-05-07T13:26:13.042Z,38.73
2019-05-07T13:28:42.044Z,39.50
2019-05-07T13:31:12.552Z,40.33
2019-05-07T13:33:42.129Z,40.72
2019-05-07T13:36:12.314Z,41.08
2019-05-07T13:38:46.408Z,41.51
2019-05-07T13:41:16.552Z,41.62
2019-05-07T13:43:58.908Z,41.89
2019-05-07T13:46:29.392Z,41.75
2019-05-07T13:48:57.991Z,41.23
2019-05-07T18:26:58.374Z,41.63
2019-05-07T18:29:27.162Z,41.63
2019-05-07T18:31:57.250Z,42.79
2019-05-07T18:34:25.745Z,43.20
2019-05-07T18:36:54.226Z,44.07
2019-05-07T18:39:22.685Z,45.06
2019-05-07T18:41:57.653Z,45.97
2019-05-07T18:44:32.326Z,46.85
2019-05-07T18:47:02.390Z,47.52
2019-05-07T18:49:31.011Z,48.45
2019-05-07T18:51:59.480Z,49.09
2019-05-07T18:54:31.363Z,49.50
2019-05-07T18:56:58.054Z,50.22
2019-05-07T18:59:31.804Z,50.99
2019-05-07T19:02:02.192Z,51.68
2019-05-07T19:04:32.651Z,52.28
2019-05-07T19:07:02.410Z,53.09
2019-05-07T19:09:31.942Z,53.66
2019-05-07T19:12:00.639Z,54.13
2019-05-07T19:14:29.143Z,54.63
2019-05-07T19:16:57.695Z,55.15
2019-05-07T19:19:26.113Z,55.58
2019-05-07T19:21:54.913Z,55.89
2019-05-07T19:24:26.214Z,56.66
2019-05-07T19:26:53.493Z,57.24
2019-05-07T19:29:23.282Z,57.82
2019-05-07T19:31:52.874Z,58.11
2019-05-07T19:34:21.946Z,58.39
2019-05-07T19:36:52.032Z,58.81
2019-05-07T19:39:23.188Z,58.99
2019-05-07T19:41:52.311Z,59.97
2019-05-07T19:44:21.423Z,59.89
2019-05-07T19:46:52.221Z,59.95
2019-05-07T19:49:20.139Z,60.18
2019-05-07T19:51:48.623Z,60.53
2019-05-07T19:54:17.056Z,60.76
2019-05-07T19:56:45.560Z,61.00
2019-05-07T19:59:14.084Z,61.30
2019-05-07T20:01:47.172Z,61.50
2019-05-07T20:04:15.623Z,61.65
2019-05-07T20:06:44.421Z,61.97
2019-05-07T20:09:15.664Z,62.19
2019-05-07T20:11:45.976Z,62.23
2019-05-07T20:14:14.418Z,62.54
2019-05-07T20:16:42.881Z,62.81
2019-05-07T20:19:12.110Z,63.18
2019-05-07T20:21:40.965Z,63.43
2019-05-07T20:24:12.305Z,63.71
2019-05-07T20:26:42.754Z,63.82
2019-05-07T20:29:12.332Z,64.00
2019-05-07T20:31:42.260Z,64.11
2019-05-07T20:34:13.133Z,64.26
2019-05-07T20:36:42.730Z,64.26
2019-05-07T20:39:12.779Z,64.21
2019-05-07T20:41:42.860Z,64.41
2019-05-07T20:44:12.087Z,64.74
2019-05-07T20:46:42.160Z,64.87
2019-05-07T20:49:12.866Z,65.04
2019-05-07T20:51:41.907Z,65.29
2019-05-07T20:54:12.873Z,65.38
2019-05-07T20:56:48.576Z,65.53
2019-05-07T20:59:17.072Z,65.80
2019-05-07T21:01:45.489Z,65.96
2019-05-07T21:04:13.952Z,66.11
2019-05-07T21:06:43.197Z,66.27
2019-05-07T21:09:12.624Z,66.43
2019-05-07T21:11:43.113Z,66.66
2019-05-07T21:14:12.186Z,66.95
2019-05-07T21:16:42.466Z,67.17
2019-05-07T21:19:12.803Z,67.32
2019-05-07T21:21:42.161Z,67.48
2019-05-07T21:24:13.099Z,67.58
2019-05-07T21:26:42.346Z,67.71
2019-05-07T21:29:13.448Z,67.86
2019-05-07T21:31:43.040Z,68.02
2019-05-07T21:34:12.504Z,68.15
2019-05-07T21:36:43.224Z,68.20
2019-05-07T21:39:12.999Z,68.28
2019-05-07T21:41:42.589Z,68.24
2019-05-07T21:44:11.388Z,68.16
2019-05-07T21:46:39.836Z,68.02
2019-05-07T21:49:08.473Z,67.82
2019-05-07T21:51:36.901Z,67.66
2019-05-07T21:54:23.734Z,67.54
2019-05-07T21:57:12.783Z,67.39
2019-05-07T21:59:43.288Z,67.08
2019-05-07T22:02:22.693Z,66.83
2019-05-07T22:04:52.901Z,66.65
2019-05-07T22:07:22.789Z,66.16
2019-05-07T22:09:52.324Z,65.43
2019-05-07T22:12:22.630Z,64.81
2019-05-07T22:14:51.517Z,64.18
2019-05-07T22:17:21.963Z,63.64
2019-05-07T22:19:52.353Z,63.34
2019-05-07T22:22:24.060Z,62.90
2019-05-07T22:24:52.738Z,62.55
2019-05-07T22:27:22.115Z,62.17
2019-05-07T22:29:52.588Z,62.01
2019-05-07T22:32:25.068Z,61.94
2019-05-07T22:34:55.431Z,61.82
2019-05-07T22:37:23.849Z,61.65
2019-05-07T22:39:52.346Z,61.44
2019-05-07T22:42:22.399Z,61.36
2019-05-07T22:44:50.919Z,61.27
2019-05-07T22:47:19.404Z,61.29
2019-05-07T22:49:49.060Z,61.28
2019-05-07T22:52:18.079Z,61.12
2019-05-07T22:54:46.513Z,61.06
2019-05-07T22:57:16.685Z,61.20
2019-05-07T22:59:45.122Z,61.11
2019-05-07T23:02:13.534Z,60.99
2019-05-07T23:04:43.207Z,60.89
2019-05-07T23:07:12.774Z,60.92
2019-05-07T23:09:41.995Z,61.11
2019-05-07T23:12:12.441Z,61.33
2019-05-07T23:14:40.835Z,61.59
2019-05-07T23:17:09.595Z,61.72
2019-05-07T23:19:38.078Z,61.85
2019-05-07T23:22:06.500Z,62.02
2019-05-07T23:24:35.020Z,62.20
2019-05-07T23:27:03.491Z,62.46
2019-05-07T23:29:33.028Z,62.71
2019-05-07T23:32:02.079Z,62.87
2019-05-07T23:34:32.571Z,63.13
2019-05-07T23:37:02.524Z,63.41
2019-05-07T23:39:38.162Z,63.61
2019-05-07T23:42:12.702Z,63.78
2019-05-07T23:44:41.994Z,63.94
2019-05-07T23:47:12.161Z,64.12
2019-05-07T23:49:42.942Z,64.35
2019-05-07T23:52:12.867Z,64.31
2019-05-07T23:54:42.515Z,64.41
2019-05-07T23:57:14.893Z,64.46
2019-05-07T23:59:42.173Z,64.52
